Hovedside
METAR-TAF:

METAR-TAF

Lufthavner :

Talagi lufthavn

Arkhangelsk, Russland

breddegrad: 64-30N, lengdegrad: 040-44E, høyde over havet: 13 m

Gjeldene værobservasjon

Denne rapporten ble laget for 15 minutter siden, klokken 12:00 UTC
Flau vind
Temperatur -9°C
Luftfuktighet 92%
Trykk 1031 hPa
Sikt 10 km eller mer
Overskyet i en høyde av 800 ft

METAR: ULAA 181200Z 00000MPS 9999 OVC008 M09/M10 Q1031 R26/950345 NOSIG RMK QFE772/1029

Tid: 15:15 (12:15 UTC)

Varsel

Denne rapporten ble laget for 1 time og 15 minutter siden, klokken 11:00 UTC
Varsel gyldig fra 18. klokken 12 UTC til 19. klokken 12 UTC
Vind 8 kt fra Sørvest
Sikt: 6000 m
Brutte skyer i en høyde av 700 ft
Midlertidig
fra 18. klokken 12 UTC til 19. klokken 10 UTC
Vind 2 kt fra skiftende retning
Sikt: 0500 m
Brutte skyer i en høyde av 200 ft
Brutte skyer i en høyde av 1100 ft
lett snø, underkjølt tåke

TAF: ULAA 181100Z 1812/1912 22004MPS 6000 BKN007 TEMPO 1812/1910 VRB01MPS 0500 -SN FZFG BKN002 BKN011

Værobservasjoner og værvarsel for over 4000 flyplasser (METAR- og TAF-rapporter).

Tilgjengelige stasjoner er representert av de røde og gule prikkene på kartet.

Hold musepekeren over prikken for å se navnet på stasjonen.

Klikk så for å se værobservasjoner og -varsler.

For å forandre kartet kan du klikke på den grønne knappen med svart kryss for å zoome inn, på den grønne knappen med strek for å zoome ut, eller på de grønne pilene for å se tilstøtende kart.


METAR-TAF: